createdAt,value
2023-04-28T00:01:21.851Z,21.42
2023-04-28T00:06:24.671Z,20.63
2023-04-28T00:11:27.473Z,26.13
2023-04-28T00:16:30.544Z,23.60
2023-04-28T00:21:51.593Z,22.92
2023-04-28T00:27:13.090Z,21.88
2023-04-28T00:32:15.850Z,19.65
2023-04-28T00:37:18.682Z,19.65
2023-04-28T00:42:21.824Z,19.23
2023-04-28T00:47:24.755Z,22.92
2023-04-28T00:52:28.608Z,24.30
2023-04-28T00:57:31.875Z,22.88
2023-04-28T01:02:37.127Z,23.35
2023-04-28T01:07:40.442Z,26.45
2023-04-28T01:12:44.255Z,24.17
2023-04-28T01:17:48.141Z,23.55
2023-04-28T01:22:51.085Z,27.33
2023-04-28T01:27:54.600Z,34.30
2023-04-28T01:32:57.675Z,24.55
2023-04-28T01:38:01.715Z,37.05
2023-04-28T01:43:04.653Z,26.75
2023-04-28T01:48:11.038Z,26.98
2023-04-28T01:53:15.112Z,25.38
2023-04-28T01:58:19.838Z,27.30
2023-04-28T02:03:25.696Z,24.08
2023-04-28T02:08:37.481Z,18.15
2023-04-28T02:13:48.503Z,27.70
2023-04-28T02:19:12.386Z,29.35
2023-04-28T02:24:15.687Z,19.33
2023-04-28T02:29:18.706Z,30.60
2023-04-28T02:34:21.904Z,22.08
2023-04-28T02:39:27.391Z,20.20
2023-04-28T02:44:32.696Z,30.48
2023-04-28T02:49:35.868Z,20.88
2023-04-28T02:54:39.214Z,27.73
2023-04-28T02:59:44.988Z,27.42
2023-04-28T03:04:51.132Z,27.15
2023-04-28T03:10:11.341Z,34.60
2023-04-28T03:15:20.675Z,25.83
2023-04-28T03:20:23.941Z,33.33
2023-04-28T03:25:26.828Z,26.88
2023-04-28T03:30:30.012Z,26.70
2023-04-28T03:35:34.210Z,23.65
2023-04-28T03:40:38.400Z,27.35
2023-04-28T03:46:05.557Z,29.45
2023-04-28T03:51:09.212Z,27.70
2023-04-28T03:56:12.562Z,27.27
2023-04-28T04:01:15.794Z,19.15
2023-04-28T04:06:19.254Z,24.75
2023-04-28T04:11:22.248Z,22.00
2023-04-28T04:16:25.752Z,23.30
2023-04-28T04:21:32.340Z,24.50
2023-04-28T04:26:35.553Z,24.88
2023-04-28T04:31:48.344Z,28.65
2023-04-28T04:36:51.142Z,26.27
2023-04-28T04:41:54.183Z,27.30
2023-04-28T04:47:13.287Z,29.50
2023-04-28T04:52:16.821Z,22.92
2023-04-28T04:57:21.465Z,28.10
2023-04-28T05:02:46.721Z,22.95
2023-04-28T05:07:52.467Z,35.30
2023-04-28T05:12:57.005Z,31.03
2023-04-28T05:18:00.512Z,24.42
2023-04-28T05:23:04.310Z,23.08
2023-04-28T05:28:12.622Z,30.33
2023-04-28T05:33:17.165Z,21.20
2023-04-28T05:38:21.560Z,26.20
2023-04-28T05:43:26.720Z,20.40
2023-04-28T05:48:30.026Z,25.83
2023-04-28T05:53:33.084Z,24.33
2023-04-28T05:58:36.313Z,23.40
2023-04-28T06:03:43.653Z,36.10
2023-04-28T06:08:47.207Z,24.67
2023-04-28T06:13:51.450Z,31.52
2023-04-28T06:18:55.109Z,24.60
2023-04-28T06:23:58.004Z,25.75
2023-04-28T06:29:00.988Z,24.85
2023-04-28T06:34:05.631Z,26.63
2023-04-28T06:39:08.757Z,32.67
2023-04-28T06:44:12.249Z,33.10
2023-04-28T06:49:15.325Z,26.33
2023-04-28T06:54:18.814Z,27.52
2023-04-28T06:59:22.276Z,23.77
2023-04-28T07:04:25.306Z,31.52
2023-04-28T07:09:29.060Z,23.42
2023-04-28T07:14:33.207Z,32.28
2023-04-28T07:19:36.098Z,36.03
2023-04-28T07:24:38.624Z,25.88
2023-04-28T07:29:41.370Z,25.63
2023-04-28T07:34:44.300Z,31.35
2023-04-28T07:39:47.714Z,26.08
2023-04-28T07:44:50.775Z,22.23
2023-04-28T07:49:53.672Z,18.35
2023-04-28T07:54:56.645Z,23.40
2023-04-28T07:59:59.570Z,20.85
2023-04-28T08:05:02.888Z,17.20
2023-04-28T08:10:06.999Z,17.75
2023-04-28T08:15:10.702Z,21.77
2023-04-28T08:20:15.896Z,20.45
2023-04-28T08:30:22.973Z,48.43
2023-04-28T08:35:26.744Z,13.88
2023-04-28T08:40:31.831Z,19.83
2023-04-28T08:50:39.953Z,13.43
2023-04-28T08:55:43.106Z,19.80
2023-04-28T09:00:46.028Z,24.10
2023-04-28T09:05:49.436Z,16.77
2023-04-28T09:11:09.798Z,62.15
2023-04-28T09:16:12.757Z,42.72
2023-04-28T09:21:17.562Z,31.33
2023-04-28T09:26:20.381Z,13.73
2023-04-28T09:31:28.825Z,25.40
2023-04-28T09:36:31.843Z,12.68
2023-04-28T09:41:45.820Z,23.60
2023-04-28T09:46:48.967Z,18.17
2023-04-28T09:51:52.026Z,21.83
2023-04-28T09:56:55.556Z,146.77
2023-04-28T10:01:58.629Z,24.55
2023-04-28T10:07:02.023Z,15.73
2023-04-28T10:12:05.672Z,23.05
2023-04-28T10:17:08.819Z,22.77
2023-04-28T10:22:17.317Z,18.27
2023-04-28T10:27:20.390Z,22.02
2023-04-28T10:32:26.786Z,20.75
2023-04-28T10:38:15.184Z,17.38
2023-04-28T10:43:30.034Z,22.90
2023-04-28T10:48:34.435Z,19.25
2023-04-28T10:53:47.079Z,20.27
2023-04-28T10:58:52.612Z,21.63
2023-04-28T11:04:01.230Z,27.33
2023-04-28T11:09:14.368Z,34.35
2023-04-28T11:14:18.610Z,20.20
2023-04-28T11:19:26.456Z,20.52
2023-04-28T11:24:30.600Z,22.00
2023-04-28T11:29:51.890Z,23.38
2023-04-28T11:34:55.328Z,16.13
2023-04-28T11:39:58.105Z,22.25
2023-04-28T11:45:01.211Z,19.45
2023-04-28T11:50:04.807Z,15.50
2023-04-28T11:55:07.955Z,23.42
2023-04-28T12:00:15.403Z,19.95
2023-04-28T12:05:18.377Z,30.90
2023-04-28T12:10:22.387Z,21.38
2023-04-28T12:15:40.085Z,23.67
2023-04-28T12:20:43.911Z,23.00
2023-04-28T12:25:48.400Z,20.15
2023-04-28T12:30:51.500Z,21.15
2023-04-28T12:35:55.532Z,30.10
2023-04-28T12:40:59.045Z,28.60
2023-04-28T12:46:01.930Z,28.50
2023-04-28T12:51:04.786Z,31.77
2023-04-28T12:56:07.689Z,29.63
2023-04-28T13:01:10.528Z,33.45
2023-04-28T13:06:13.497Z,41.72
2023-04-28T13:11:22.859Z,38.25
2023-04-28T13:16:29.743Z,35.25
2023-04-28T13:21:32.464Z,41.10
2023-04-28T13:26:35.571Z,34.75
2023-04-28T13:31:38.721Z,38.05
2023-04-28T13:36:41.840Z,47.72
2023-04-28T13:41:44.665Z,51.75
2023-04-28T13:46:47.640Z,48.35
2023-04-28T13:51:50.656Z,48.83
2023-04-28T13:56:53.506Z,42.05
2023-04-28T14:01:56.416Z,105.82
2023-04-28T14:06:59.257Z,48.85
2023-04-28T14:12:02.659Z,38.78
2023-04-28T14:17:05.846Z,41.05
2023-04-28T14:22:08.738Z,44.92
2023-04-28T14:27:11.784Z,48.80
2023-04-28T14:32:21.455Z,38.75
2023-04-28T14:37:24.349Z,46.65
2023-04-28T14:42:31.769Z,39.42
2023-04-28T14:47:35.027Z,46.85
2023-04-28T14:52:38.649Z,31.70
2023-04-28T14:57:42.551Z,30.92
2023-04-28T15:02:45.489Z,31.40
2023-04-28T15:07:48.552Z,35.83
2023-04-28T15:12:51.560Z,31.45
2023-04-28T15:18:00.986Z,34.38
2023-04-28T15:23:04.020Z,26.58
2023-04-28T15:28:07.782Z,36.13
2023-04-28T15:33:17.521Z,38.47
2023-04-28T15:38:20.636Z,36.38
2023-04-28T15:43:23.567Z,31.13
2023-04-28T15:48:27.153Z,31.70
2023-04-28T15:53:30.195Z,30.90
2023-04-28T15:58:33.010Z,26.42
2023-04-28T16:03:36.163Z,26.92
2023-04-28T16:08:39.847Z,28.80
2023-04-28T16:13:42.651Z,23.50
2023-04-28T16:18:45.397Z,33.08
2023-04-28T16:23:51.558Z,31.13
2023-04-28T16:28:54.458Z,22.20
2023-04-28T16:33:57.233Z,20.38
2023-04-28T16:39:00.069Z,14.00
2023-04-28T16:44:02.825Z,19.77
2023-04-28T16:49:05.901Z,16.20
2023-04-28T16:54:08.680Z,11.90
2023-04-28T16:59:11.460Z,14.63
2023-04-28T17:04:14.950Z,9.85
2023-04-28T17:09:19.094Z,8.18
2023-04-28T17:14:22.041Z,9.63
2023-04-28T17:19:25.153Z,9.30
2023-04-28T17:24:28.044Z,7.22
2023-04-28T17:29:31.506Z,6.18
2023-04-28T17:34:34.357Z,4.65
2023-04-28T17:39:37.096Z,7.72
2023-04-28T17:44:39.872Z,16.27
2023-04-28T17:49:42.846Z,2.92
2023-04-28T17:54:45.677Z,3.20
2023-04-28T17:59:51.697Z,2.75
2023-04-28T18:04:55.618Z,4.68
2023-04-28T18:09:59.176Z,1.15
2023-04-28T18:15:03.002Z,6.90
2023-04-28T18:20:08.653Z,4.68
2023-04-28T18:25:11.905Z,6.88
2023-04-28T18:30:16.164Z,2.20
2023-04-28T18:35:19.262Z,0.98
2023-04-28T18:40:22.721Z,4.05
2023-04-28T18:45:31.656Z,2.50
2023-04-28T18:50:34.864Z,1.67
2023-04-28T18:55:37.741Z,2.45
2023-04-28T19:00:40.787Z,1.13
2023-04-28T19:05:44.111Z,3.05
2023-04-28T19:10:52.862Z,1.75
2023-04-28T19:15:56.604Z,6.95
2023-04-28T19:21:03.858Z,9.20
2023-04-28T19:26:07.072Z,1.70
2023-04-28T19:31:09.988Z,1.45
2023-04-28T19:36:12.931Z,2.00
2023-04-28T19:41:15.701Z,2.63
2023-04-28T19:46:18.654Z,1.42
2023-04-28T19:51:21.817Z,3.08
2023-04-28T19:56:25.327Z,2.83
2023-04-28T20:01:28.178Z,2.38
2023-04-28T20:06:31.256Z,3.22
2023-04-28T20:11:35.594Z,6.75
2023-04-28T20:16:38.417Z,2.53
2023-04-28T20:21:42.412Z,2.38
2023-04-28T20:26:45.224Z,2.45
2023-04-28T20:31:48.235Z,2.33
2023-04-28T20:36:53.265Z,1.73
2023-04-28T20:41:56.109Z,2.17
2023-04-28T20:46:59.608Z,1.50
2023-04-28T20:52:05.222Z,1.75
2023-04-28T20:57:09.634Z,2.30
2023-04-28T21:02:12.594Z,2.22
2023-04-28T21:07:15.431Z,2.22
2023-04-28T21:12:18.310Z,3.92
2023-04-28T21:17:21.174Z,1.58
2023-04-28T21:22:25.390Z,2.50
2023-04-28T21:27:28.153Z,3.40
2023-04-28T21:32:31.264Z,4.32
2023-04-28T21:37:34.210Z,10.20
2023-04-28T21:42:37.046Z,3.15
2023-04-28T21:47:42.759Z,2.70
2023-04-28T21:52:46.649Z,2.75
2023-04-28T21:57:49.456Z,3.42
2023-04-28T22:02:53.135Z,4.20
2023-04-28T22:07:56.198Z,2.33
2023-04-28T22:12:58.977Z,2.33
2023-04-28T22:18:01.948Z,3.28
2023-04-28T22:23:05.057Z,4.80
2023-04-28T22:28:07.719Z,4.22
2023-04-28T22:33:10.774Z,2.72
2023-04-28T22:38:13.509Z,4.60
2023-04-28T22:43:16.397Z,2.05
2023-04-28T22:48:19.427Z,2.05
2023-04-28T22:53:22.201Z,2.55
2023-04-28T22:58:25.195Z,3.00
2023-04-28T23:03:27.958Z,3.83
2023-04-28T23:08:30.991Z,2.45
2023-04-28T23:13:33.712Z,1.88
2023-04-28T23:18:36.545Z,4.15
2023-04-28T23:23:39.273Z,2.72
2023-04-28T23:28:42.635Z,3.00
2023-04-28T23:33:45.650Z,5.15
2023-04-28T23:38:48.400Z,2.90
2023-04-28T23:43:53.063Z,5.07
2023-04-28T23:48:56.070Z,2.55
2023-04-28T23:53:59.552Z,3.38
2023-04-28T23:59:02.342Z,3.47
